| time (UTC) | temp C | wind direction | speed KPH | gust KPH | rain 1hr cm | rain 24hr cm | rain mn cm | humidity % | barometer mb |
| 20260506203334 | 20 | 315 | 0.0 | 0.0 | 0.00 | 0.00 | 0.00 | 55 | 1004.2 |
| 20260506201831 | 20 | 315 | 0.0 | 4.8 | 0.00 | 0.00 | 0.00 | 54 | 1004.1 |
| 20260506200328 | 21 | 315 | 0.0 | 0.0 | 0.00 | 0.00 | 0.00 | 54 | 1004.4 |
| 20260506194825 | 21 | 0 | 0.0 | 0.0 | 0.00 | 0.00 | 0.00 | 52 | 1004.6 |
| 20260506193322 | 21 | 0 | 0.0 | 0.0 | 0.00 | 0.00 | 0.00 | 50 | 1004.7 |
| 20260506191819 | 21 | 0 | 0.0 | 0.0 | 0.00 | 0.00 | 0.00 | 49 | 1004.6 |
| 20260506184813 | 21 | 0 | 0.0 | 0.0 | 0.00 | 0.00 | 0.00 | 47 | 1004.3 |
| 20260506183310 | 21 | 84 | 1.6 | 4.8 | 0.00 | 0.00 | 0.00 | 47 | 1004.1 |
| 20260506181807 | 22 | 62 | 1.6 | 6.4 | 0.00 | 0.00 | 0.00 | 45 | 1003.9 |
| 20260506180304 | 22 | 90 | 1.6 | 4.8 | 0.00 | 0.00 | 0.00 | 44 | 1003.9 |
| 20260506174803 | 22 | 54 | 3.2 | 6.4 | 0.00 | 0.00 | 0.00 | 43 | 1003.8 |
| 20260506173258 | 23 | 82 | 8.0 | 8.0 | 0.00 | 0.00 | 0.00 | 41 | 1004.0 |
| 20260506171755 | 25 | 299 | 0.0 | 4.8 | 0.00 | 0.00 | 0.00 | 40 | 1004.0 |
| 20260506170252 | 24 | 288 | 1.6 | 6.4 | 0.00 | 0.00 | 0.00 | 41 | 1003.9 |
| 20260506163245 | 24 | 315 | 0.0 | 9.7 | 0.00 | 0.00 | 0.00 | 41 | 1004.0 |
| 20260506160034 | 24 | 282 | 1.6 | 12.9 | 0.00 | 0.00 | 0.00 | 40 | 1004.0 |
| 20260506155344 | 23 | 270 | 14.5 | 14.5 | 0.00 | 0.00 | 0.00 | 40 | 1004.1 |
| 20260506154321 | 24 | 4 | 1.6 | 17.7 | 0.00 | 0.00 | 0.00 | 40 | 1004.1 |
| 20260506153818 | 24 | 274 | 17.7 | 17.7 | 0.00 | 0.00 | 0.00 | 40 | 1004.1 |
| 20260506153032 | 24 | 300 | 3.2 | 9.7 | 0.00 | 0.00 | 0.00 | 40 | 1004.1 |
| 20260506151529 | 24 | 79 | 6.4 | 12.9 | 0.00 | 0.00 | 0.00 | 40 | 1004.1 |
| 20260506150028 | 24 | 278 | 1.6 | 11.3 | 0.00 | 0.00 | 0.00 | 40 | 1004.1 |
| 20260506144525 | 23 | 92 | 3.2 | 12.9 | 0.00 | 0.00 | 0.00 | 41 | 1004.1 |
| 20260506143020 | 23 | 97 | 6.4 | 11.3 | 0.00 | 0.00 | 0.00 | 41 | 1004.1 |
| 20260506141517 | 24 | 290 | 1.6 | 12.9 | 0.00 | 0.00 | 0.00 | 41 | 1004.1 |
| 20260506140607 | 24 | 278 | 14.5 | 14.5 | 0.00 | 0.00 | 0.00 | 41 | 1004.3 |
| 20260506135215 | 23 | 314 | 0.0 | 9.7 | 0.00 | 0.00 | 0.00 | 43 | 1004.2 |
| 20260506133712 | 24 | 80 | 6.4 | 11.3 | 0.00 | 0.00 | 0.00 | 42 | 1004.3 |
| 20260506132209 | 25 | 291 | 3.2 | 9.7 | 0.00 | 0.00 | 0.00 | 41 | 1004.3 |
| 20260506131649 | 25 | 267 | 16.1 | 16.1 | 0.00 | 0.00 | 0.00 | 42 | 1004.2 |
| 20260506130951 | 24 | 317 | 3.2 | 11.3 | 0.00 | 0.00 | 0.00 | 44 | 1004.2 |
| 20260506125448 | 23 | 280 | 1.6 | 9.7 | 0.00 | 0.00 | 0.00 | 47 | 1004.3 |
| 20260506123945 | 24 | 265 | 3.2 | 11.3 | 0.00 | 0.00 | 0.00 | 46 | 1004.3 |
| 20260506122442 | 23 | 285 | 3.2 | 12.9 | 0.00 | 0.00 | 0.00 | 48 | 1004.4 |
| 20260506120939 | 23 | 270 | 1.6 | 9.7 | 0.00 | 0.00 | 0.00 | 50 | 1004.4 |
| 20260506120248 | 23 | 272 | 14.5 | 14.5 | 0.00 | 0.00 | 0.00 | 51 | 1004.4 |
| 20260506115745 | 22 | 283 | 1.6 | 12.9 | 0.00 | 0.00 | 0.00 | 54 | 1004.3 |
| 20260506114242 | 22 | 281 | 6.4 | 11.3 | 0.00 | 0.00 | 0.00 | 56 | 1004.5 |
| 20260506112739 | 21 | 270 | 3.2 | 9.7 | 0.00 | 0.00 | 0.00 | 59 | 1004.5 |
| 20260506111236 | 21 | 270 | 3.2 | 8.0 | 0.00 | 0.00 | 0.00 | 61 | 1004.5 |
| 20260506105733 | 21 | 271 | 8.0 | 12.9 | 0.00 | 0.00 | 0.00 | 59 | 1004.6 |
| 20260506104230 | 21 | 96 | 4.8 | 9.7 | 0.00 | 0.00 | 0.00 | 61 | 1004.3 |
| 20260506103726 | 21 | 270 | 17.7 | 17.7 | 0.00 | 0.00 | 0.00 | 61 | 1004.3 |
| 20260506102648 | 20 | 272 | 3.2 | 8.0 | 0.00 | 0.00 | 0.00 | 64 | 1004.4 |
| 20260506101145 | 20 | 313 | 1.6 | 11.3 | 0.00 | 0.00 | 0.00 | 63 | 1004.3 |
| 20260506100424 | 20 | 274 | 14.5 | 16.1 | 0.00 | 0.00 | 0.00 | 63 | 1004.4 |
| 20260506095921 | 20 | 262 | 4.8 | 12.9 | 0.00 | 0.00 | 0.00 | 65 | 1004.4 |
| 20260506094418 | 20 | 268 | 3.2 | 14.5 | 0.00 | 0.00 | 0.00 | 68 | 1004.2 |
| 20260506092915 | 20 | 274 | 4.8 | 9.7 | 0.00 | 0.00 | 0.00 | 69 | 1004.1 |
| 20260506091412 | 19 | 277 | 8.0 | 9.7 | 0.00 | 0.00 | 0.00 | 70 | 1004.1 |
| 20260506085909 | 18 | 270 | 1.6 | 12.9 | 0.00 | 0.00 | 0.00 | 75 | 1004.1 |
| 20260506085123 | 18 | 274 | 14.5 | 14.5 | 0.00 | 0.00 | 0.00 | 74 | 1004.1 |
| 20260506083758 | 18 | 112 | 1.6 | 1.6 | 0.00 | 0.00 | 0.00 | 80 | 1004.0 |